Portada
METAR-TAF:

METAR-TAF

Aeroports :

Bandar Abbas, Iran

latitud: 27-13N, longitud: 056-22E, altitud: 10 m

Observació

L'informe es va fer fa 33 minuts, a les 11:30 UTC
Vent 6 kt del Sud/Sud-Oest
Temperatura 36°C
Humitat 11%
Pressió 1009 hPa
Visibilitat 10 km o més
sense núvols per sota de 1500 mi sense presència de cumulonimbus.

METAR: OIKB 221130Z 20006KT CAVOK 36/01 Q1008 A2979

Hora: 15:33 (12:03 UTC)

Pronòstic

L'informe es va fer fa 6 hores i 13 minuts, a les 05:50 UTC
Pronòstic vàlid del 22 a les 06 UTC al 23 a les 12 UTC
Vent 8 kt del Est/Nord-Est
Visibilitat: 8000 m
Temporalment
l' 22 a les 09 UTC al 22 a les 15 UTC
Vent 14 kt del Oest/Sud-Oest
Temporalment
l' 23 a les 03 UTC al 23 a les 12 UTC
Vent 16 kt del Est

TAF: OIKB 220550Z 2206/2312 06008KT 8000 NSC TEMPO 2209/2215 25014KT TEMPO 2303/2312 08016KT

Observacions i pronòstics meteorològics de més de 4000 aeroports (METAR i TAF).

Les estacions disponibles són els punts grocs i vermells al mapa.

Posi el ratolí al punt desitjat per veure el nom de l'estació.

Feu clic per veure les observacions i els pronòstics meteorològics.

Per canviar el mapa: feu clic els botons verds amb una creu de color negre per apropar; al botó verd amb un guió per allunyar la imatge; o en les fletxes verdes per a mapes adjacents.


METAR-TAF: